createdAt,value
2019-01-15T00:00:05.708Z,928.55
2019-01-15T00:00:18.711Z,928.53
2019-01-15T00:00:31.698Z,928.53
2019-01-15T00:00:44.718Z,928.53
2019-01-15T00:00:57.716Z,928.52
2019-01-15T00:01:10.520Z,928.54
2019-01-15T00:01:23.492Z,928.53
2019-01-15T00:01:36.435Z,928.54
2019-01-15T00:01:49.448Z,928.56
2019-01-15T00:02:02.448Z,928.55
2019-01-15T00:02:15.376Z,928.58
2019-01-15T00:02:28.300Z,928.58
2019-01-15T00:02:41.337Z,928.57
2019-01-15T00:02:54.333Z,928.55
2019-01-15T00:03:07.326Z,928.54
2019-01-15T00:03:20.321Z,928.57
2019-01-15T00:03:33.295Z,928.53
2019-01-15T00:03:46.261Z,928.59
2019-01-15T00:03:59.258Z,928.54
2019-01-15T00:04:11.970Z,928.54
2019-01-15T00:04:24.999Z,928.53
2019-01-15T00:04:37.909Z,928.54
2019-01-15T00:04:50.839Z,928.55
2019-01-15T00:05:03.833Z,928.55
2019-01-15T00:05:16.832Z,928.57
2019-01-15T00:05:29.830Z,928.6
2019-01-15T00:05:42.859Z,928.59
2019-01-15T00:05:55.758Z,928.59
2019-01-15T00:06:08.824Z,928.59
2019-01-15T00:06:21.814Z,928.6
2019-01-15T00:06:34.826Z,928.6
2019-01-15T00:06:47.745Z,928.6
2019-01-15T00:07:00.682Z,928.62
2019-01-15T00:07:13.638Z,928.66
2019-01-15T00:07:26.648Z,928.62
2019-01-15T00:07:39.579Z,928.6
2019-01-15T00:07:52.131Z,928.63
2019-01-15T00:08:04.683Z,928.63
2019-01-15T00:08:17.919Z,928.64
2019-01-15T00:08:30.910Z,928.62
2019-01-15T00:08:43.863Z,928.68
2019-01-15T00:08:56.861Z,928.67
2019-01-15T00:09:10.871Z,928.68
2019-01-15T00:09:23.798Z,928.7
2019-01-15T00:09:36.780Z,928.71
2019-01-15T00:09:49.738Z,928.7
2019-01-15T00:10:02.642Z,928.72
2019-01-15T00:10:15.687Z,928.71
2019-01-15T00:10:28.679Z,928.67
2019-01-15T00:10:41.669Z,928.66
2019-01-15T00:10:54.655Z,928.73
2019-01-15T00:11:07.651Z,928.72
2019-01-15T00:11:20.641Z,928.73
2019-01-15T00:11:33.579Z,928.77
2019-01-15T00:11:46.561Z,928.75
2019-01-15T00:11:59.561Z,928.76
2019-01-15T00:12:17.890Z,928.76
2019-01-15T00:12:30.875Z,928.75
2019-01-15T00:12:43.834Z,928.81
2019-01-15T00:12:56.910Z,928.8
2019-01-15T00:13:09.842Z,928.78
2019-01-15T00:13:22.837Z,928.83
2019-01-15T00:13:35.856Z,928.8
2019-01-15T00:13:48.853Z,928.81
2019-01-15T00:14:01.802Z,928.8
2019-01-15T00:14:14.792Z,928.77
2019-01-15T00:14:27.750Z,928.84
2019-01-15T00:14:40.731Z,928.79
2019-01-15T00:14:53.692Z,928.8
2019-01-15T00:15:06.719Z,928.81
2019-01-15T00:15:19.731Z,928.79
2019-01-15T00:15:32.729Z,928.8
2019-01-15T00:15:45.702Z,928.81
2019-01-15T00:15:58.697Z,928.79
2019-01-15T00:16:11.724Z,928.79
2019-01-15T00:16:24.750Z,928.8
2019-01-15T00:16:37.679Z,928.81
2019-01-15T00:16:50.691Z,928.77
2019-01-15T00:17:03.649Z,928.78
2019-01-15T00:17:16.149Z,928.76
2019-01-15T00:17:29.090Z,928.77
2019-01-15T00:17:42.082Z,928.78
2019-01-15T00:17:55.075Z,928.75
2019-01-15T00:18:08.091Z,928.74
2019-01-15T00:18:21.096Z,928.77
2019-01-15T00:18:34.082Z,928.74
2019-01-15T00:18:47.071Z,928.74
2019-01-15T00:19:00.037Z,928.72
2019-01-15T00:19:13.036Z,928.74
2019-01-15T00:19:25.968Z,928.75
2019-01-15T00:19:38.950Z,928.75
2019-01-15T00:19:51.943Z,928.73
2019-01-15T00:20:04.968Z,928.72
2019-01-15T00:20:17.957Z,928.73
2019-01-15T00:20:30.908Z,928.7
2019-01-15T00:20:44.088Z,928.73
2019-01-15T00:20:57.128Z,928.73
2019-01-15T00:21:10.037Z,928.72
2019-01-15T00:21:22.970Z,928.72
2019-01-15T00:21:35.492Z,928.77
2019-01-15T00:21:48.506Z,928.73
2019-01-15T00:22:01.521Z,928.73
2019-01-15T00:22:14.528Z,928.74
2019-01-15T00:22:27.538Z,928.76
2019-01-15T00:22:40.535Z,928.76
2019-01-15T00:22:53.513Z,928.71
2019-01-15T00:23:06.519Z,928.77
2019-01-15T00:23:20.543Z,928.76
2019-01-15T00:23:33.552Z,928.76
2019-01-15T00:23:46.530Z,928.77
2019-01-15T00:23:59.524Z,928.78
2019-01-15T00:24:12.704Z,928.76
2019-01-15T00:24:25.700Z,928.75
2019-01-15T00:24:38.578Z,928.77
2019-01-15T00:24:51.580Z,928.8
2019-01-15T00:25:04.565Z,928.81
2019-01-15T00:25:17.563Z,928.81
2019-01-15T00:25:30.583Z,928.81
2019-01-15T00:25:43.604Z,928.83
2019-01-15T00:25:56.594Z,928.85
2019-01-15T00:26:09.558Z,928.87
2019-01-15T00:26:22.715Z,928.88
2019-01-15T00:26:35.673Z,928.87
2019-01-15T00:26:48.636Z,928.87
2019-01-15T00:27:01.645Z,928.89
2019-01-15T00:27:14.638Z,928.88
2019-01-15T00:27:27.646Z,928.89
2019-01-15T00:27:40.606Z,928.9
2019-01-15T00:27:53.555Z,928.93
2019-01-15T00:28:06.525Z,928.88
2019-01-15T00:28:19.561Z,928.92
2019-01-15T00:28:32.561Z,928.9
2019-01-15T00:28:45.573Z,928.89
2019-01-15T00:28:58.566Z,928.9
2019-01-15T00:29:11.557Z,928.94
2019-01-15T00:29:24.776Z,928.91
2019-01-15T00:29:37.732Z,928.91
2019-01-15T00:29:50.616Z,928.89
2019-01-15T00:30:03.630Z,928.92
2019-01-15T00:30:16.796Z,928.9
2019-01-15T00:30:29.756Z,928.9
2019-01-15T00:30:42.674Z,928.92
2019-01-15T00:30:55.670Z,928.92
2019-01-15T00:31:08.587Z,928.86
2019-01-15T00:31:21.581Z,928.89
2019-01-15T00:31:34.573Z,928.88
2019-01-15T00:31:47.543Z,928.88
2019-01-15T00:32:00.766Z,928.85
2019-01-15T00:32:13.754Z,928.9
2019-01-15T00:32:26.757Z,928.9
2019-01-15T00:32:39.739Z,928.88
2019-01-15T00:32:52.743Z,928.88
2019-01-15T00:33:05.696Z,928.84
2019-01-15T00:33:18.666Z,928.81
2019-01-15T00:33:33.134Z,928.79
2019-01-15T00:33:46.132Z,928.78
2019-01-15T00:33:59.151Z,928.8
2019-01-15T00:34:12.148Z,928.8
2019-01-15T00:34:25.382Z,928.77
2019-01-15T00:34:38.594Z,928.8
2019-01-15T00:34:51.550Z,928.78
2019-01-15T00:35:04.552Z,928.78
2019-01-15T00:35:17.518Z,928.82
2019-01-15T00:35:30.507Z,928.79
2019-01-15T00:35:43.527Z,928.79
2019-01-15T00:35:56.509Z,928.8
2019-01-15T00:36:09.538Z,928.82
2019-01-15T00:36:22.522Z,928.76
2019-01-15T00:36:35.516Z,928.78
2019-01-15T00:36:48.789Z,928.76
2019-01-15T00:37:01.769Z,928.76
2019-01-15T00:37:14.806Z,928.75
2019-01-15T00:37:27.830Z,928.75
2019-01-15T00:37:40.777Z,928.78
2019-01-15T00:37:53.773Z,928.75
2019-01-15T00:38:06.705Z,928.74
2019-01-15T00:38:19.735Z,928.77
2019-01-15T00:38:32.725Z,928.78
2019-01-15T00:38:45.735Z,928.78
2019-01-15T00:38:58.690Z,928.8
2019-01-15T00:39:11.702Z,928.78
2019-01-15T00:39:25.105Z,928.76
2019-01-15T00:39:37.665Z,928.77
2019-01-15T00:39:50.658Z,928.78
2019-01-15T00:40:03.625Z,928.78
2019-01-15T00:40:16.616Z,928.76
2019-01-15T00:40:29.672Z,928.75
2019-01-15T00:40:42.662Z,928.76
2019-01-15T00:40:55.656Z,928.76
2019-01-15T00:41:08.659Z,928.78
2019-01-15T00:41:21.651Z,928.74
2019-01-15T00:41:34.689Z,928.77
2019-01-15T00:41:47.679Z,928.72
2019-01-15T00:42:00.691Z,928.74
2019-01-15T00:42:19.517Z,928.72
2019-01-15T00:42:32.504Z,928.71
2019-01-15T00:42:45.516Z,928.74
2019-01-15T00:42:58.472Z,928.72
2019-01-15T00:43:11.451Z,928.75
2019-01-15T00:43:24.426Z,928.77
2019-01-15T00:43:37.389Z,928.74
2019-01-15T00:43:50.615Z,928.73
2019-01-15T00:44:03.575Z,928.79
2019-01-15T00:44:16.564Z,928.81
2019-01-15T00:44:29.544Z,928.8
2019-01-15T00:44:42.528Z,928.77
2019-01-15T00:44:55.573Z,928.76
2019-01-15T00:45:08.597Z,928.75
2019-01-15T00:45:21.653Z,928.72
2019-01-15T00:45:34.594Z,928.75
2019-01-15T00:45:47.532Z,928.76
2019-01-15T00:46:00.558Z,928.77
2019-01-15T00:46:13.083Z,928.71
2019-01-15T00:46:27.568Z,928.75
2019-01-15T00:46:40.518Z,928.72
2019-01-15T00:46:53.478Z,928.73
2019-01-15T00:47:06.393Z,928.72
2019-01-15T00:47:19.419Z,928.72
2019-01-15T00:47:32.415Z,928.72
2019-01-15T00:47:45.337Z,928.72
2019-01-15T00:47:58.336Z,928.74
2019-01-15T00:48:11.295Z,928.74
2019-01-15T00:48:24.290Z,928.76
2019-01-15T00:48:37.324Z,928.73
2019-01-15T00:48:50.281Z,928.74
2019-01-15T00:49:02.834Z,928.77
2019-01-15T00:49:15.818Z,928.79
2019-01-15T00:49:28.392Z,928.78
2019-01-15T00:49:41.424Z,928.75
2019-01-15T00:49:54.448Z,928.76
2019-01-15T00:50:07.436Z,928.75
2019-01-15T00:50:20.418Z,928.8
2019-01-15T00:50:32.921Z,928.77
2019-01-15T00:50:45.903Z,928.81
2019-01-15T00:50:58.847Z,928.83
2019-01-15T00:51:11.803Z,928.8
2019-01-15T00:51:24.856Z,928.78
2019-01-15T00:51:37.837Z,928.82
2019-01-15T00:51:50.771Z,928.8
2019-01-15T00:52:03.799Z,928.84
2019-01-15T00:52:16.706Z,928.87
2019-01-15T00:52:29.722Z,928.84
2019-01-15T00:52:42.300Z,928.88
2019-01-15T00:52:55.286Z,928.89
2019-01-15T00:53:08.323Z,928.9
2019-01-15T00:53:21.268Z,928.93
2019-01-15T00:53:34.196Z,928.92
2019-01-15T00:53:47.196Z,928.93
2019-01-15T00:54:00.158Z,928.92
2019-01-15T00:54:13.131Z,928.98
2019-01-15T00:54:26.094Z,928.97
2019-01-15T00:54:39.069Z,928.98
2019-01-15T00:54:52.071Z,929
2019-01-15T00:55:05.043Z,928.99
2019-01-15T00:55:18.081Z,929.01
2019-01-15T00:55:31.177Z,928.97
2019-01-15T00:55:44.272Z,929
2019-01-15T00:55:57.301Z,929
2019-01-15T00:56:10.306Z,929
2019-01-15T00:56:23.344Z,929.05
2019-01-15T00:56:36.336Z,929.02
2019-01-15T00:56:49.321Z,929.02
2019-01-15T00:57:02.344Z,929.03
2019-01-15T00:57:15.329Z,929.02
2019-01-15T00:57:28.489Z,929.01
2019-01-15T00:57:41.476Z,929.03
2019-01-15T00:57:54.464Z,929.03
2019-01-15T00:58:07.487Z,928.99
2019-01-15T00:58:20.514Z,929
2019-01-15T00:58:33.505Z,929.01
2019-01-15T00:58:46.530Z,929.06
2019-01-15T00:58:59.495Z,929.08
2019-01-15T00:59:12.651Z,929
2019-01-15T00:59:25.619Z,929.01
2019-01-15T00:59:38.848Z,929.04
2019-01-15T00:59:51.858Z,929.01
2019-01-15T01:00:04.801Z,929.02
2019-01-15T01:00:17.778Z,928.98
2019-01-15T01:00:30.712Z,929.02
2019-01-15T01:00:43.679Z,928.97
2019-01-15T01:00:56.632Z,929.01
2019-01-15T01:01:09.563Z,929.01
2019-01-15T01:01:22.597Z,929.02
2019-01-15T01:01:35.558Z,929.01
2019-01-15T01:01:48.551Z,929.01
2019-01-15T01:02:01.607Z,928.97
2019-01-15T01:02:14.572Z,928.99
2019-01-15T01:02:27.602Z,929.04
2019-01-15T01:02:40.599Z,928.93
2019-01-15T01:02:53.591Z,928.99
2019-01-15T01:03:06.597Z,928.96
2019-01-15T01:03:19.563Z,928.94
2019-01-15T01:03:32.571Z,928.93
2019-01-15T01:03:45.554Z,928.92
2019-01-15T01:03:58.520Z,928.94
2019-01-15T01:04:11.553Z,928.94
2019-01-15T01:04:24.563Z,928.98
2019-01-15T01:04:37.762Z,928.95
2019-01-15T01:04:50.748Z,928.91
2019-01-15T01:05:03.724Z,928.98
2019-01-15T01:05:16.723Z,928.94
2019-01-15T01:05:29.711Z,928.92
2019-01-15T01:05:42.700Z,928.93
2019-01-15T01:05:55.824Z,928.92
2019-01-15T01:06:08.836Z,928.94
2019-01-15T01:06:21.361Z,928.96
2019-01-15T01:06:34.549Z,928.93
2019-01-15T01:06:47.541Z,928.92
2019-01-15T01:07:00.473Z,928.97
2019-01-15T01:07:13.431Z,928.98
2019-01-15T01:07:26.393Z,928.96
2019-01-15T01:07:39.629Z,928.93
2019-01-15T01:07:52.671Z,928.99
2019-01-15T01:08:05.668Z,928.98
2019-01-15T01:08:18.685Z,928.96
2019-01-15T01:08:31.651Z,928.95
2019-01-15T01:08:44.619Z,928.98
2019-01-15T01:08:57.652Z,928.96
2019-01-15T01:09:10.641Z,928.94
2019-01-15T01:09:23.634Z,928.92
2019-01-15T01:09:37.561Z,928.95
2019-01-15T01:09:50.500Z,928.97
2019-01-15T01:10:03.477Z,928.97
2019-01-15T01:10:16.461Z,928.98
2019-01-15T01:10:29.447Z,928.97
2019-01-15T01:10:42.480Z,928.98
2019-01-15T01:10:55.517Z,928.98
2019-01-15T01:11:08.521Z,929.02
2019-01-15T01:11:21.525Z,929.01
2019-01-15T01:11:34.541Z,929.02
2019-01-15T01:11:47.563Z,928.99
2019-01-15T01:12:00.550Z,929
2019-01-15T01:12:13.726Z,929.01
2019-01-15T01:12:32.280Z,929
2019-01-15T01:12:45.214Z,929.04
2019-01-15T01:12:58.421Z,929.05
2019-01-15T01:13:10.934Z,929.08
2019-01-15T01:13:23.917Z,929.03
2019-01-15T01:13:36.373Z,929.02
2019-01-15T01:13:50.406Z,929.01
2019-01-15T01:14:03.403Z,929.03
2019-01-15T01:14:16.423Z,929.02
2019-01-15T01:14:29.423Z,929.04
2019-01-15T01:14:42.438Z,929.06
2019-01-15T01:14:55.288Z,929.09
2019-01-15T01:15:08.287Z,929.03
2019-01-15T01:15:21.236Z,929.05
2019-01-15T01:15:34.282Z,929.05
2019-01-15T01:15:47.288Z,929.09
2019-01-15T01:16:00.318Z,929.1
2019-01-15T01:16:13.336Z,929.05
2019-01-15T01:16:26.302Z,929.09
2019-01-15T01:16:39.312Z,929.08
2019-01-15T01:16:52.280Z,929.11
2019-01-15T01:17:05.317Z,929.11
2019-01-15T01:17:18.288Z,929.15
2019-01-15T01:17:32.762Z,929.13
2019-01-15T01:17:45.722Z,929.14
2019-01-15T01:17:59.361Z,929.08
2019-01-15T01:18:13.528Z,929.15
2019-01-15T01:18:26.492Z,929.09
2019-01-15T01:18:39.447Z,929.11
2019-01-15T01:18:52.390Z,929.15
2019-01-15T01:19:05.374Z,929.13
2019-01-15T01:19:18.400Z,929.18
2019-01-15T01:19:31.401Z,929.16
2019-01-15T01:19:44.316Z,929.18
2019-01-15T01:19:57.271Z,929.19
2019-01-15T01:20:10.251Z,929.17
2019-01-15T01:20:23.217Z,929.23
2019-01-15T01:20:37.106Z,929.22
2019-01-15T01:20:50.216Z,929.25
2019-01-15T01:21:03.215Z,929.21
2019-01-15T01:21:16.214Z,929.23
2019-01-15T01:21:29.214Z,929.23
2019-01-15T01:21:42.373Z,929.27
2019-01-15T01:21:55.368Z,929.26
2019-01-15T01:22:08.743Z,929.28
2019-01-15T01:22:21.674Z,929.27
2019-01-15T01:22:34.701Z,929.29
2019-01-15T01:22:47.803Z,929.26
2019-01-15T01:23:00.770Z,929.3
2019-01-15T01:23:13.695Z,929.29
2019-01-15T01:23:26.653Z,929.27
2019-01-15T01:23:39.670Z,929.37
2019-01-15T01:23:52.641Z,929.32
2019-01-15T01:24:05.640Z,929.34
2019-01-15T01:24:18.655Z,929.35
2019-01-15T01:24:31.637Z,929.35
2019-01-15T01:24:45.535Z,929.31
2019-01-15T01:24:58.440Z,929.32
2019-01-15T01:25:11.402Z,929.36
2019-01-15T01:25:24.414Z,929.34
2019-01-15T01:25:37.412Z,929.36
2019-01-15T01:25:49.914Z,929.4
2019-01-15T01:26:02.918Z,929.36
2019-01-15T01:26:15.861Z,929.37
2019-01-15T01:26:28.856Z,929.37
2019-01-15T01:26:41.867Z,929.39
2019-01-15T01:26:54.872Z,929.37
2019-01-15T01:27:07.859Z,929.4
2019-01-15T01:27:20.892Z,929.38
2019-01-15T01:27:33.893Z,929.42
2019-01-15T01:27:46.874Z,929.38
2019-01-15T01:27:59.799Z,929.4
2019-01-15T01:28:12.780Z,929.38
2019-01-15T01:28:25.309Z,929.39
2019-01-15T01:28:38.267Z,929.38
2019-01-15T01:28:51.257Z,929.4
2019-01-15T01:29:04.252Z,929.38
2019-01-15T01:29:17.228Z,929.36
2019-01-15T01:29:30.144Z,929.34
2019-01-15T01:29:43.067Z,929.38
2019-01-15T01:29:56.073Z,929.38
2019-01-15T01:30:09.038Z,929.36
2019-01-15T01:30:22.018Z,929.34
2019-01-15T01:30:35.000Z,929.38
2019-01-15T01:30:47.997Z,929.34
2019-01-15T01:31:01.007Z,929.29
2019-01-15T01:31:13.970Z,929.35
2019-01-15T01:31:26.932Z,929.35
2019-01-15T01:31:39.942Z,929.33
2019-01-15T01:31:52.954Z,929.33
2019-01-15T01:32:05.980Z,929.35
2019-01-15T01:32:18.979Z,929.32
2019-01-15T01:32:31.990Z,929.3
2019-01-15T01:32:44.992Z,929.34
2019-01-15T01:32:57.978Z,929.33
2019-01-15T01:33:10.965Z,929.35
2019-01-15T01:33:23.945Z,929.34
2019-01-15T01:33:36.939Z,929.36
2019-01-15T01:33:49.929Z,929.33
2019-01-15T01:34:02.914Z,929.34
2019-01-15T01:34:15.897Z,929.3
2019-01-15T01:34:28.854Z,929.35
2019-01-15T01:34:41.867Z,929.34
2019-01-15T01:34:54.997Z,929.32
2019-01-15T01:35:07.948Z,929.36
2019-01-15T01:35:20.899Z,929.33
2019-01-15T01:35:33.872Z,929.28
2019-01-15T01:35:46.864Z,929.28
2019-01-15T01:35:59.879Z,929.3
2019-01-15T01:36:12.895Z,929.31
2019-01-15T01:36:25.880Z,929.31
2019-01-15T01:36:38.863Z,929.26
2019-01-15T01:36:51.872Z,929.29
2019-01-15T01:37:04.879Z,929.32
2019-01-15T01:37:17.877Z,929.29
2019-01-15T01:37:30.849Z,929.3
2019-01-15T01:37:43.396Z,929.26
2019-01-15T01:37:56.351Z,929.27
2019-01-15T01:38:09.336Z,929.28
2019-01-15T01:38:22.382Z,929.33
2019-01-15T01:38:35.362Z,929.32
2019-01-15T01:38:48.380Z,929.25
2019-01-15T01:39:01.339Z,929.24
2019-01-15T01:39:14.306Z,929.26
2019-01-15T01:39:27.309Z,929.29
2019-01-15T01:39:40.252Z,929.32
2019-01-15T01:39:54.007Z,929.33
2019-01-15T01:40:07.240Z,929.25
2019-01-15T01:40:20.269Z,929.24
2019-01-15T01:40:33.288Z,929.21
2019-01-15T01:40:46.312Z,929.21
2019-01-15T01:40:59.285Z,929.22
2019-01-15T01:41:12.246Z,929.26
2019-01-15T01:41:25.267Z,929.23
2019-01-15T01:41:38.249Z,929.26
2019-01-15T01:41:51.300Z,929.27
2019-01-15T01:42:04.309Z,929.24
2019-01-15T01:42:17.288Z,929.25
2019-01-15T01:42:36.588Z,929.25
2019-01-15T01:42:49.525Z,929.23
2019-01-15T01:43:02.087Z,929.23
2019-01-15T01:43:15.061Z,929.27
2019-01-15T01:43:28.033Z,929.27
2019-01-15T01:43:40.983Z,929.29
2019-01-15T01:43:53.979Z,929.31
2019-01-15T01:44:06.993Z,929.29
2019-01-15T01:44:20.010Z,929.3
2019-01-15T01:44:32.966Z,929.28
2019-01-15T01:44:45.922Z,929.28
2019-01-15T01:44:58.905Z,929.31
2019-01-15T01:45:11.910Z,929.3
2019-01-15T01:45:24.984Z,929.28
2019-01-15T01:45:37.996Z,929.31
2019-01-15T01:45:50.987Z,929.3
2019-01-15T01:46:04.010Z,929.3
2019-01-15T01:46:16.985Z,929.31
2019-01-15T01:46:30.263Z,929.31
2019-01-15T01:46:43.263Z,929.3
2019-01-15T01:46:56.212Z,929.35
2019-01-15T01:47:09.182Z,929.35
2019-01-15T01:47:22.178Z,929.35
2019-01-15T01:47:34.690Z,929.34
2019-01-15T01:47:47.655Z,929.31
2019-01-15T01:48:00.641Z,929.31
2019-01-15T01:48:13.626Z,929.27
2019-01-15T01:48:26.610Z,929.32
2019-01-15T01:48:39.654Z,929.34
2019-01-15T01:48:52.672Z,929.34
2019-01-15T01:49:05.654Z,929.34
2019-01-15T01:49:18.609Z,929.32
2019-01-15T01:49:31.623Z,929.37
2019-01-15T01:49:44.601Z,929.29
2019-01-15T01:49:57.582Z,929.39
2019-01-15T01:50:10.607Z,929.35
2019-01-15T01:50:23.611Z,929.33
2019-01-15T01:50:37.673Z,929.36
2019-01-15T01:50:50.666Z,929.4
2019-01-15T01:51:03.668Z,929.37
2019-01-15T01:51:16.665Z,929.41
2019-01-15T01:51:29.703Z,929.41
2019-01-15T01:51:42.634Z,929.39
2019-01-15T01:51:55.606Z,929.41
2019-01-15T01:52:08.567Z,929.41
2019-01-15T01:52:21.574Z,929.37
2019-01-15T01:52:34.588Z,929.38
2019-01-15T01:52:47.599Z,929.4
2019-01-15T01:53:00.558Z,929.4
2019-01-15T01:53:13.674Z,929.41
2019-01-15T01:53:26.695Z,929.4
2019-01-15T01:53:39.729Z,929.46
2019-01-15T01:53:52.317Z,929.43
2019-01-15T01:54:05.280Z,929.47
2019-01-15T01:54:18.268Z,929.39
2019-01-15T01:54:31.244Z,929.44
2019-01-15T01:54:44.260Z,929.47
2019-01-15T01:54:57.299Z,929.44
2019-01-15T01:55:10.240Z,929.46
2019-01-15T01:55:23.249Z,929.44
2019-01-15T01:55:36.223Z,929.42
2019-01-15T01:55:49.244Z,929.41
2019-01-15T01:56:02.198Z,929.45
2019-01-15T01:56:15.218Z,929.43
2019-01-15T01:56:28.200Z,929.42
2019-01-15T01:56:41.213Z,929.43
2019-01-15T01:56:54.233Z,929.39
2019-01-15T01:57:07.231Z,929.41
2019-01-15T01:57:20.219Z,929.41
2019-01-15T01:57:33.213Z,929.39
2019-01-15T01:57:46.233Z,929.36
2019-01-15T01:57:59.221Z,929.39
2019-01-15T01:58:11.757Z,929.36
2019-01-15T01:58:24.786Z,929.36
2019-01-15T01:58:37.736Z,929.35
2019-01-15T01:58:50.771Z,929.36
2019-01-15T01:59:03.311Z,929.32
2019-01-15T01:59:16.319Z,929.33
2019-01-15T01:59:29.255Z,929.36
2019-01-15T01:59:42.192Z,929.33
2019-01-15T01:59:55.218Z,929.27
2019-01-15T02:00:08.272Z,929.28
2019-01-15T02:00:21.256Z,929.3
2019-01-15T02:00:34.230Z,929.31
2019-01-15T02:00:47.223Z,929.25
2019-01-15T02:01:00.172Z,929.27
2019-01-15T02:01:13.161Z,929.3
2019-01-15T02:01:26.149Z,929.28
2019-01-15T02:01:39.120Z,929.25
2019-01-15T02:01:51.614Z,929.29
2019-01-15T02:02:04.572Z,929.24
2019-01-15T02:02:17.537Z,929.21
2019-01-15T02:02:30.493Z,929.22
2019-01-15T02:02:43.455Z,929.27
2019-01-15T02:02:56.433Z,929.25
2019-01-15T02:03:09.423Z,929.24
2019-01-15T02:03:22.402Z,929.22
2019-01-15T02:03:34.925Z,929.22
2019-01-15T02:03:47.961Z,929.22
2019-01-15T02:04:00.950Z,929.19
2019-01-15T02:04:13.975Z,929.23
2019-01-15T02:04:26.961Z,929.2
2019-01-15T02:04:39.973Z,929.21
2019-01-15T02:04:53.002Z,929.18
2019-01-15T02:05:06.176Z,929.18
2019-01-15T02:05:19.147Z,929.17
2019-01-15T02:05:32.120Z,929.18
2019-01-15T02:05:45.085Z,929.15
2019-01-15T02:05:58.053Z,929.16
2019-01-15T02:06:11.064Z,929.14
2019-01-15T02:06:24.907Z,929.18
2019-01-15T02:06:37.961Z,929.16
2019-01-15T02:06:50.953Z,929.16
2019-01-15T02:07:03.932Z,929.18
2019-01-15T02:07:16.960Z,929.17
2019-01-15T02:07:29.957Z,929.22
2019-01-15T02:07:42.924Z,929.18
2019-01-15T02:07:55.920Z,929.17
2019-01-15T02:08:08.931Z,929.19
2019-01-15T02:08:21.879Z,929.21
2019-01-15T02:08:34.958Z,929.21
2019-01-15T02:08:47.975Z,929.2
2019-01-15T02:09:00.950Z,929.2
2019-01-15T02:09:13.962Z,929.26
2019-01-15T02:09:26.891Z,929.21
2019-01-15T02:09:39.874Z,929.23
2019-01-15T02:09:52.840Z,929.26
2019-01-15T02:10:06.538Z,929.21
2019-01-15T02:10:19.523Z,929.24
2019-01-15T02:10:32.558Z,929.24
2019-01-15T02:10:45.553Z,929.25
2019-01-15T02:10:58.624Z,929.24
2019-01-15T02:11:11.629Z,929.23
2019-01-15T02:11:24.592Z,929.25
2019-01-15T02:11:37.579Z,929.26
2019-01-15T02:11:50.596Z,929.25
2019-01-15T02:12:03.556Z,929.27
2019-01-15T02:12:16.534Z,929.2
2019-01-15T02:12:36.640Z,929.24
2019-01-15T02:12:49.819Z,929.25
2019-01-15T02:13:02.779Z,929.24
2019-01-15T02:13:15.798Z,929.24
2019-01-15T02:13:28.764Z,929.28
2019-01-15T02:13:41.711Z,929.25
2019-01-15T02:13:54.968Z,929.27
2019-01-15T02:14:07.923Z,929.26
2019-01-15T02:14:20.961Z,929.29
2019-01-15T02:14:34.018Z,929.29
2019-01-15T02:14:47.068Z,929.25
2019-01-15T02:15:00.038Z,929.28
2019-01-15T02:15:12.534Z,929.29
2019-01-15T02:15:25.510Z,929.29
2019-01-15T02:15:38.508Z,929.28
2019-01-15T02:15:51.512Z,929.27
2019-01-15T02:16:04.442Z,929.32
2019-01-15T02:16:17.396Z,929.25
2019-01-15T02:16:30.381Z,929.26
2019-01-15T02:16:43.341Z,929.25
2019-01-15T02:16:56.304Z,929.26
2019-01-15T02:17:09.341Z,929.22
2019-01-15T02:17:22.300Z,929.28
2019-01-15T02:17:35.379Z,929.27
2019-01-15T02:17:48.366Z,929.25
2019-01-15T02:18:01.398Z,929.28
2019-01-15T02:18:14.403Z,929.21
2019-01-15T02:18:27.370Z,929.24
2019-01-15T02:18:40.346Z,929.25
2019-01-15T02:18:53.347Z,929.26
2019-01-15T02:19:06.344Z,929.25
2019-01-15T02:19:19.311Z,929.26
2019-01-15T02:19:32.322Z,929.27
2019-01-15T02:19:45.270Z,929.26
2019-01-15T02:19:58.254Z,929.23
2019-01-15T02:20:11.216Z,929.24
2019-01-15T02:20:24.212Z,929.24
2019-01-15T02:20:37.221Z,929.22
2019-01-15T02:20:50.214Z,929.23
2019-01-15T02:21:03.141Z,929.22
2019-01-15T02:21:16.121Z,929.22
2019-01-15T02:21:29.131Z,929.22
2019-01-15T02:21:42.159Z,929.26
2019-01-15T02:21:55.131Z,929.23
2019-01-15T02:22:08.111Z,929.25
2019-01-15T02:22:21.085Z,929.21
2019-01-15T02:22:34.021Z,929.24
2019-01-15T02:22:46.998Z,929.23
2019-01-15T02:23:00.012Z,929.2
2019-01-15T02:23:12.981Z,929.22
2019-01-15T02:23:25.973Z,929.24
2019-01-15T02:23:38.928Z,929.21
2019-01-15T02:23:51.913Z,929.21
2019-01-15T02:24:04.874Z,929.21
2019-01-15T02:24:17.849Z,929.19
2019-01-15T02:24:30.840Z,929.23
2019-01-15T02:24:43.851Z,929.22
2019-01-15T02:24:56.883Z,929.2
2019-01-15T02:25:10.100Z,929.17
2019-01-15T02:25:23.050Z,929.24
2019-01-15T02:25:36.050Z,929.26
2019-01-15T02:25:49.046Z,929.22
2019-01-15T02:26:02.016Z,929.21
2019-01-15T02:26:15.020Z,929.24
2019-01-15T02:26:27.975Z,929.22
2019-01-15T02:26:40.965Z,929.2
2019-01-15T02:26:55.566Z,929.17
2019-01-15T02:27:08.580Z,929.22
2019-01-15T02:27:21.656Z,929.24
2019-01-15T02:27:34.628Z,929.21
2019-01-15T02:27:47.621Z,929.25
2019-01-15T02:28:00.579Z,929.21
2019-01-15T02:28:13.104Z,929.17
2019-01-15T02:28:26.121Z,929.2
2019-01-15T02:28:39.104Z,929.23
2019-01-15T02:28:52.040Z,929.18
2019-01-15T02:29:05.063Z,929.21
2019-01-15T02:29:18.055Z,929.23
2019-01-15T02:29:31.001Z,929.23
2019-01-15T02:29:43.980Z,929.21
2019-01-15T02:29:57.012Z,929.2
2019-01-15T02:30:10.019Z,929.23
2019-01-15T02:30:23.079Z,929.21
2019-01-15T02:30:36.121Z,929.19
2019-01-15T02:30:49.091Z,929.19
2019-01-15T02:31:02.090Z,929.22
2019-01-15T02:31:15.093Z,929.27
2019-01-15T02:31:28.065Z,929.22
2019-01-15T02:31:41.094Z,929.25
2019-01-15T02:31:54.098Z,929.22
2019-01-15T02:32:07.104Z,929.22
2019-01-15T02:32:20.129Z,929.25
2019-01-15T02:32:33.177Z,929.26
2019-01-15T02:32:46.195Z,929.21
2019-01-15T02:32:59.173Z,929.23
2019-01-15T02:33:12.162Z,929.21
2019-01-15T02:33:25.259Z,929.2
2019-01-15T02:33:38.261Z,929.26
2019-01-15T02:33:51.252Z,929.18
2019-01-15T02:34:04.260Z,929.21
2019-01-15T02:34:17.276Z,929.16
2019-01-15T02:34:30.235Z,929.15
2019-01-15T02:34:43.237Z,929.17
2019-01-15T02:34:56.254Z,929.22
2019-01-15T02:35:09.246Z,929.14
2019-01-15T02:35:22.618Z,929.24
2019-01-15T02:35:35.626Z,929.19
2019-01-15T02:35:48.607Z,929.19
2019-01-15T02:36:01.628Z,929.24
2019-01-15T02:36:14.590Z,929.19
2019-01-15T02:36:27.649Z,929.15
2019-01-15T02:36:40.663Z,929.19
2019-01-15T02:36:53.663Z,929.2
2019-01-15T02:37:06.649Z,929.18
2019-01-15T02:37:19.590Z,929.19
2019-01-15T02:37:32.564Z,929.19
2019-01-15T02:37:45.578Z,929.21
2019-01-15T02:37:58.562Z,929.21
2019-01-15T02:38:11.542Z,929.17
2019-01-15T02:38:24.605Z,929.27
2019-01-15T02:38:37.635Z,929.27
2019-01-15T02:38:50.598Z,929.25
2019-01-15T02:39:03.592Z,929.22
2019-01-15T02:39:16.604Z,929.21
2019-01-15T02:39:29.660Z,929.21
2019-01-15T02:39:42.674Z,929.26
2019-01-15T02:39:55.652Z,929.21
2019-01-15T02:40:08.188Z,929.24
2019-01-15T02:40:21.891Z,929.28
2019-01-15T02:40:34.907Z,929.23
2019-01-15T02:40:47.887Z,929.26
2019-01-15T02:41:00.837Z,929.24
2019-01-15T02:41:13.827Z,929.23
2019-01-15T02:41:26.847Z,929.21
2019-01-15T02:41:39.848Z,929.26
2019-01-15T02:41:52.872Z,929.24
2019-01-15T02:42:05.862Z,929.23
2019-01-15T02:42:18.937Z,929.28
2019-01-15T02:42:31.969Z,929.25
2019-01-15T02:42:53.472Z,929.26
2019-01-15T02:43:06.487Z,929.24
2019-01-15T02:43:19.464Z,929.21
2019-01-15T02:43:32.433Z,929.18